Time;durP1;ratioP1;P1;durP2;ratioP2;P2;SDS_P1;SDS_P2;PMS_P1;PMS_P2;Temp;Humidity;BMP_temperature;BMP_pressure;BME280_temperature;BME280_humidity;BME280_pressure;Samples;Min_cycle;Max_cycle;Signal;HPM_P1;HPM_P2
2022/01/25 00:09:33;;;;;;;247.50;236.60;;;3.70;99.90;;;;;;6219299;23;20427;-82
2022/01/25 00:15:12;;;;;;;271.77;260.03;;;3.80;99.90;;;;;;6229442;23;20438;-82
2022/01/25 00:26:03;;;;;;;286.73;274.77;;;3.70;99.90;;;;;;6179524;23;20427;-82
2022/01/25 00:28:44;;;;;;;312.57;299.57;;;3.80;99.90;;;;;;6218524;23;20427;-83
2022/01/25 00:31:13;;;;;;;339.13;325.27;;;3.70;99.90;;;;;;6219400;23;20423;-82
2022/01/25 00:33:43;;;;;;;360.37;345.27;;;3.70;99.90;;;;;;6218925;23;20462;-80
2022/01/25 00:36:13;;;;;;;363.50;348.73;;;3.70;99.90;;;;;;6229185;23;20395;-83
2022/01/25 00:38:40;;;;;;;364.73;349.87;;;3.70;99.90;;;;;;6228121;23;20454;-83
2022/01/25 00:41:07;;;;;;;356.77;341.73;;;3.60;99.90;;;;;;6219032;23;20407;-83
2022/01/25 00:43:34;;;;;;;336.23;323.00;;;3.70;99.90;;;;;;6218457;23;20415;-85
2022/01/25 00:46:05;;;;;;;328.73;315.03;;;3.70;99.90;;;;;;6219066;23;20411;-82
2022/01/25 00:48:42;;;;;;;333.17;319.27;;;3.70;99.90;;;;;;6218628;23;20807;-84
2022/01/25 00:51:35;;;;;;;312.00;299.20;;;3.70;99.90;;;;;;6219014;23;20392;-83
2022/01/25 00:54:06;;;;;;;298.27;285.93;;;3.70;99.90;;;;;;6219100;23;20479;-83
2022/01/25 00:56:35;;;;;;;317.57;303.77;;;3.70;99.90;;;;;;6228911;23;20399;-82
2022/01/25 00:59:05;;;;;;;317.33;304.03;;;3.70;99.90;;;;;;6218011;23;20440;-83
2022/01/25 01:01:33;;;;;;;327.40;313.50;;;3.70;99.90;;;;;;6218769;23;20412;-82
2022/01/25 01:03:59;;;;;;;334.40;320.63;;;3.70;99.90;;;;;;6218546;23;20436;-83
2022/01/25 01:06:27;;;;;;;343.17;328.77;;;3.80;99.90;;;;;;6217642;23;20902;-83
2022/01/25 01:08:54;;;;;;;336.63;322.73;;;3.80;99.90;;;;;;6218813;23;20829;-83
2022/01/25 01:11:29;;;;;;;332.40;319.30;;;3.70;99.90;;;;;;6219174;23;20479;-83
2022/01/25 01:14:03;;;;;;;337.20;323.73;;;3.70;99.90;;;;;;6219219;23;20424;-83
2022/01/25 01:30:30;;;;;;;350.10;335.77;;;3.80;99.90;;;;;;6188210;23;20424;-81
2022/01/25 01:33:23;;;;;;;365.13;350.57;;;3.70;99.90;;;;;;6188202;23;20400;-80
2022/01/25 01:36:25;;;;;;;383.00;367.40;;;3.70;99.90;;;;;;6188958;23;20420;-81
2022/01/25 01:44:38;;;;;;;447.13;428.23;;;3.60;99.90;;;;;;6186782;23;20444;-81
2022/01/25 01:47:08;;;;;;;481.00;459.60;;;3.70;99.90;;;;;;6189130;23;20432;-81
2022/01/25 01:49:40;;;;;;;456.53;437.23;;;3.70;99.90;;;;;;6188100;23;20838;-80
2022/01/25 01:52:07;;;;;;;455.07;435.57;;;3.70;99.90;;;;;;6188768;23;20404;-81
2022/01/25 01:54:36;;;;;;;437.47;418.67;;;3.60;99.90;;;;;;6189070;23;20410;-81
2022/01/25 01:57:03;;;;;;;439.00;420.23;;;3.70;99.90;;;;;;6188419;23;20413;-81
2022/01/25 01:59:30;;;;;;;426.70;408.80;;;3.70;99.90;;;;;;6188411;23;20763;-81
2022/01/25 02:01:57;;;;;;;426.57;408.57;;;3.70;99.90;;;;;;6188998;23;20730;-81
2022/01/25 02:04:24;;;;;;;404.23;387.93;;;3.70;99.90;;;;;;6189774;23;20671;-81
2022/01/25 02:06:51;;;;;;;374.10;358.90;;;3.60;99.90;;;;;;6190837;23;20435;-81
2022/01/25 02:09:18;;;;;;;385.80;370.47;;;3.70;99.90;;;;;;6190145;23;20436;-80
2022/01/25 02:11:46;;;;;;;387.20;371.50;;;3.70;99.90;;;;;;6190675;23;20410;-80
2022/01/25 02:14:15;;;;;;;390.27;374.67;;;3.60;99.90;;;;;;6191023;23;20413;-80
2022/01/25 02:16:58;;;;;;;392.37;376.27;;;3.60;99.90;;;;;;6190024;23;20420;-81
2022/01/25 02:22:32;;;;;;;398.40;381.67;;;3.60;99.90;;;;;;6220555;23;20929;-81
2022/01/25 02:25:00;;;;;;;402.67;386.07;;;3.60;99.90;;;;;;6220569;23;20491;-81
2022/01/25 02:27:27;;;;;;;415.17;397.63;;;3.60;99.90;;;;;;6219969;23;20422;-81
2022/01/25 02:29:54;;;;;;;428.10;410.77;;;3.70;99.90;;;;;;6219522;23;20438;-80
2022/01/25 02:32:21;;;;;;;434.77;416.53;;;3.70;99.90;;;;;;6219926;23;20412;-80
2022/01/25 02:34:48;;;;;;;433.60;415.27;;;3.60;99.90;;;;;;6220407;23;20404;-81
2022/01/25 02:37:17;;;;;;;439.90;421.33;;;3.60;99.90;;;;;;6220590;23;20412;-81
2022/01/25 02:39:45;;;;;;;451.73;432.93;;;3.60;99.90;;;;;;6220496;23;20754;-80
2022/01/25 02:42:14;;;;;;;421.17;403.27;;;3.50;99.90;;;;;;6220231;23;20412;-81
2022/01/25 02:44:42;;;;;;;397.13;380.80;;;3.60;99.90;;;;;;6220019;23;20432;-81
2022/01/25 02:49:54;;;;;;;340.07;326.30;;;3.50;99.90;;;;;;6220159;23;20807;-81
2022/01/25 02:52:22;;;;;;;330.03;316.63;;;3.50;99.90;;;;;;6220044;23;20418;-81
2022/01/25 02:54:49;;;;;;;318.63;305.23;;;3.60;99.90;;;;;;6220204;23;20408;-81
2022/01/25 02:57:16;;;;;;;322.33;309.47;;;3.60;99.90;;;;;;6219841;23;20416;-81
2022/01/25 02:59:43;;;;;;;329.07;315.17;;;3.60;99.90;;;;;;6219912;23;20432;-81
2022/01/25 03:02:10;;;;;;;334.93;321.03;;;3.70;99.90;;;;;;6220082;23;20412;-81
2022/01/25 03:04:36;;;;;;;321.87;308.67;;;3.60;99.90;;;;;;6220101;23;20444;-80
2022/01/25 03:07:04;;;;;;;322.33;309.53;;;3.60;99.90;;;;;;6219834;23;20435;-81
2022/01/25 03:09:32;;;;;;;338.60;324.70;;;3.60;99.90;;;;;;6229574;23;20428;-81
2022/01/25 03:12:01;;;;;;;333.43;318.97;;;3.60;99.90;;;;;;6219399;23;20418;-81
2022/01/25 03:14:32;;;;;;;332.30;318.40;;;3.60;99.90;;;;;;6219634;23;20467;-80
2022/01/25 03:17:09;;;;;;;357.80;342.47;;;3.60;99.90;;;;;;6219122;23;20403;-80
2022/01/25 03:19:49;;;;;;;371.33;355.50;;;3.60;99.90;;;;;;6219532;23;20448;-81
2022/01/25 03:22:19;;;;;;;369.37;354.07;;;3.60;99.90;;;;;;6219619;23;20453;-81
2022/01/25 03:24:47;;;;;;;377.97;362.23;;;3.60;99.90;;;;;;6219346;23;20420;-81
2022/01/25 03:27:14;;;;;;;387.57;370.37;;;3.50;99.90;;;;;;6229655;23;20416;-80
2022/01/25 03:29:41;;;;;;;384.40;367.97;;;3.60;99.90;;;;;;6219322;23;20443;-81
2022/01/25 03:32:11;;;;;;;388.43;370.93;;;3.50;99.90;;;;;;6219232;23;20412;-80
2022/01/25 03:34:38;;;;;;;397.90;380.57;;;3.60;99.90;;;;;;6229331;23;20435;-81
2022/01/25 03:37:05;;;;;;;398.17;381.67;;;3.50;99.90;;;;;;6219528;23;20439;-80
2022/01/25 03:39:32;;;;;;;406.87;389.47;;;3.60;99.90;;;;;;6218470;23;20946;-81
2022/01/25 03:42:00;;;;;;;409.27;391.37;;;3.50;99.90;;;;;;6220232;23;20411;-80
2022/01/25 03:44:27;;;;;;;404.40;387.13;;;3.50;99.90;;;;;;6219876;23;20417;-80
2022/01/25 03:47:01;;;;;;;406.03;388.47;;;3.50;99.90;;;;;;6229167;23;20479;-80
2022/01/25 03:52:24;;;;;;;420.07;402.27;;;3.50;99.90;;;;;;6204332;23;20499;-81
2022/01/25 03:54:50;;;;;;;427.43;408.87;;;3.60;99.90;;;;;;6220976;23;20411;-81
2022/01/25 03:57:19;;;;;;;427.87;409.67;;;3.60;99.90;;;;;;6219294;23;20408;-81
2022/01/25 03:59:47;;;;;;;430.17;411.10;;;3.50;99.90;;;;;;6219379;23;20424;-81
2022/01/25 04:02:15;;;;;;;422.63;404.33;;;3.60;99.90;;;;;;6218102;23;20418;-80
2022/01/25 04:04:42;;;;;;;421.00;403.03;;;3.50;99.90;;;;;;6220050;23;20498;-81
2022/01/25 04:07:11;;;;;;;414.77;397.20;;;3.50;99.90;;;;;;6219096;23;20412;-79
2022/01/25 04:09:39;;;;;;;401.57;384.67;;;3.60;99.90;;;;;;6220434;23;20438;-81
2022/01/25 04:12:08;;;;;;;403.17;385.93;;;3.70;99.90;;;;;;6220107;23;20419;-81
2022/01/25 04:14:36;;;;;;;416.07;398.43;;;3.60;99.90;;;;;;6220801;23;20819;-81
2022/01/25 04:17:06;;;;;;;432.60;413.73;;;3.60;99.90;;;;;;6218526;23;20497;-81
2022/01/25 04:19:37;;;;;;;430.20;411.63;;;3.70;99.90;;;;;;6217828;23;20438;-81
2022/01/25 04:25:13;;;;;;;443.80;424.30;;;3.60;99.90;;;;;;6228554;23;20424;-81
2022/01/25 04:27:40;;;;;;;459.23;438.93;;;3.60;99.90;;;;;;6218783;23;20424;-81
2022/01/25 04:30:10;;;;;;;478.93;457.53;;;3.60;99.90;;;;;;6217694;23;20436;-81
2022/01/25 04:32:42;;;;;;;483.60;461.27;;;3.50;99.90;;;;;;6218885;23;20412;-81
2022/01/25 04:35:26;;;;;;;475.67;454.10;;;3.50;99.90;;;;;;6218322;23;20392;-81
2022/01/25 04:49:04;;;;;;;521.07;496.10;;;3.50;99.90;;;;;;6218086;23;20494;-81
2022/01/25 04:51:56;;;;;;;538.40;512.90;;;3.50;99.90;;;;;;6219118;23;20451;-81
2022/01/25 04:54:34;;;;;;;533.03;507.67;;;3.50;99.90;;;;;;6217818;23;20483;-80
2022/01/25 04:57:14;;;;;;;545.00;518.23;;;3.40;99.90;;;;;;6218406;23;20868;-80
2022/01/25 04:59:47;;;;;;;545.90;519.53;;;3.40;99.90;;;;;;6227621;23;20427;-80
2022/01/25 05:02:20;;;;;;;559.30;531.40;;;3.40;99.90;;;;;;6215611;23;20396;-81
2022/01/25 05:04:52;;;;;;;557.87;529.60;;;3.40;99.90;;;;;;6215846;23;20438;-81
2022/01/25 05:07:29;;;;;;;549.00;521.80;;;3.50;99.90;;;;;;6215837;23;20400;-81
2022/01/25 05:09:57;;;;;;;546.13;519.13;;;3.50;99.90;;;;;;6215899;23;20830;-80
2022/01/25 05:12:35;;;;;;;543.53;516.80;;;3.50;99.90;;;;;;6216040;23;20721;-80
2022/01/25 05:15:18;;;;;;;542.40;515.23;;;3.40;99.90;;;;;;6216311;23;20397;-81
2022/01/25 05:17:59;;;;;;;544.03;516.77;;;3.40;99.90;;;;;;6216007;23;20396;-81
2022/01/25 05:23:10;;;;;;;565.80;536.30;;;3.50;99.90;;;;;;6217286;23;20398;-81
2022/01/25 05:25:36;;;;;;;572.43;542.53;;;3.40;99.90;;;;;;6216999;23;20436;-81
2022/01/25 05:28:03;;;;;;;568.30;539.70;;;3.50;99.90;;;;;;6216846;23;20427;-81
2022/01/25 05:30:30;;;;;;;569.57;541.00;;;3.40;99.90;;;;;;6215949;23;20679;-81
2022/01/25 05:32:58;;;;;;;582.70;553.17;;;3.50;99.90;;;;;;6216404;23;20412;-80
2022/01/25 05:35:25;;;;;;;553.00;525.67;;;3.50;99.90;;;;;;6216169;23;20834;-81
2022/01/25 05:37:52;;;;;;;564.60;536.20;;;3.40;99.90;;;;;;6218377;23;20427;-81
2022/01/25 05:40:28;;;;;;;561.27;533.37;;;3.40;99.90;;;;;;6220200;23;20436;-81
2022/01/25 05:45:55;;;;;;;558.17;529.47;;;3.40;99.90;;;;;;6219112;23;20434;-80
2022/01/25 05:48:23;;;;;;;559.03;531.37;;;3.40;99.90;;;;;;6220699;23;20436;-81
2022/01/25 05:50:50;;;;;;;516.57;491.97;;;3.40;99.90;;;;;;6220422;23;20412;-81
2022/01/25 05:53:17;;;;;;;505.57;481.07;;;3.50;99.90;;;;;;6220020;23;20418;-81
2022/01/25 05:55:44;;;;;;;500.93;477.27;;;3.40;99.90;;;;;;6220865;23;20415;-80
2022/01/25 05:58:11;;;;;;;499.93;476.23;;;3.40;99.90;;;;;;6219179;23;20416;-80
2022/01/25 06:00:38;;;;;;;485.60;462.23;;;3.40;99.90;;;;;;6221338;23;20434;-81
2022/01/25 06:03:06;;;;;;;478.50;455.30;;;3.50;99.90;;;;;;6220851;23;20411;-81
2022/01/25 06:05:35;;;;;;;475.63;452.67;;;3.50;99.90;;;;;;6220110;23;20768;-81
2022/01/25 06:08:03;;;;;;;466.57;444.63;;;3.50;99.90;;;;;;6220149;23;20418;-81
2022/01/25 06:10:29;;;;;;;474.17;451.70;;;3.50;99.90;;;;;;6219654;23;20412;-81
2022/01/25 06:12:56;;;;;;;480.23;457.97;;;3.50;99.90;;;;;;6219335;23;20416;-81
2022/01/25 06:15:23;;;;;;;492.27;468.37;;;3.40;99.90;;;;;;6230265;23;20420;-81
2022/01/25 06:17:51;;;;;;;509.77;485.73;;;3.50;99.90;;;;;;6220295;23;20442;-80
2022/01/25 06:20:18;;;;;;;499.07;475.17;;;3.40;99.90;;;;;;6219565;23;20443;-81
2022/01/25 06:22:47;;;;;;;495.73;472.17;;;3.50;99.90;;;;;;6220788;23;20412;-80
2022/01/25 06:25:14;;;;;;;509.13;484.13;;;3.50;99.90;;;;;;6219983;23;20416;-80
2022/01/25 06:27:42;;;;;;;507.87;483.87;;;3.50;99.90;;;;;;6219974;23;20412;-81
2022/01/25 06:30:10;;;;;;;519.83;495.10;;;3.40;99.90;;;;;;6220070;23;20435;-81
2022/01/25 06:32:37;;;;;;;501.23;477.97;;;3.40;99.90;;;;;;6229811;23;20426;-81
2022/01/25 06:35:05;;;;;;;501.67;477.87;;;3.50;99.90;;;;;;6220434;23;20407;-81
2022/01/25 06:37:32;;;;;;;507.67;482.97;;;3.40;99.90;;;;;;6220273;23;20407;-80
2022/01/25 06:40:00;;;;;;;495.27;471.27;;;3.40;99.90;;;;;;6220201;23;20516;-81
2022/01/25 06:42:30;;;;;;;500.53;476.70;;;3.40;99.90;;;;;;6220646;23;20412;-81
2022/01/25 06:45:00;;;;;;;512.00;486.57;;;3.50;99.90;;;;;;6220663;23;20411;-81
2022/01/25 06:47:27;;;;;;;525.63;499.80;;;3.40;99.90;;;;;;6220405;23;20474;-81
2022/01/25 06:49:54;;;;;;;538.53;511.03;;;3.40;99.90;;;;;;6219062;23;20764;-81
2022/01/25 06:52:21;;;;;;;541.83;514.53;;;3.40;99.90;;;;;;6219687;23;20749;-80
2022/01/25 06:54:48;;;;;;;547.90;519.30;;;3.40;99.90;;;;;;6222298;23;20502;-80
2022/01/25 06:57:17;;;;;;;563.63;534.53;;;3.30;99.90;;;;;;6220955;23;20414;-81
2022/01/25 06:59:44;;;;;;;575.33;545.17;;;3.40;99.90;;;;;;6219429;23;20519;-81
2022/01/25 07:02:12;;;;;;;598.90;566.97;;;3.30;99.90;;;;;;6219708;23;20435;-81
2022/01/25 07:04:38;;;;;;;598.70;566.40;;;3.30;99.90;;;;;;6219440;23;20470;-81
2022/01/25 07:07:05;;;;;;;612.60;579.80;;;3.40;99.90;;;;;;6219925;23;20435;-81
2022/01/25 07:09:32;;;;;;;599.20;567.43;;;3.30;99.90;;;;;;6218806;23;20515;-81
2022/01/25 07:12:00;;;;;;;612.80;580.07;;;3.20;99.90;;;;;;6220224;23;20488;-82
2022/01/25 07:14:28;;;;;;;607.70;575.00;;;3.30;99.90;;;;;;6218528;23;20447;-81
2022/01/25 07:16:55;;;;;;;615.87;582.40;;;3.30;99.90;;;;;;6219797;23;20412;-82
2022/01/25 07:19:21;;;;;;;628.03;592.83;;;3.30;99.90;;;;;;6219070;23;20442;-82
2022/01/25 07:21:48;;;;;;;628.47;593.67;;;3.20;99.90;;;;;;6218771;23;20404;-81
2022/01/25 07:24:15;;;;;;;626.37;591.60;;;3.10;99.90;;;;;;6221289;23;20796;-83
2022/01/25 07:26:42;;;;;;;638.50;601.87;;;3.20;99.90;;;;;;6220578;23;20519;-82
2022/01/25 07:29:08;;;;;;;656.10;619.37;;;3.20;99.90;;;;;;6220395;23;20439;-82
2022/01/25 07:31:37;;;;;;;646.13;608.93;;;3.20;99.90;;;;;;6232089;23;20883;-83
2022/01/25 07:34:03;;;;;;;660.33;622.30;;;3.20;99.90;;;;;;6225520;23;20480;-82
2022/01/25 07:36:30;;;;;;;682.20;642.50;;;3.30;99.90;;;;;;6222637;23;20415;-82
2022/01/25 07:38:57;;;;;;;679.87;639.27;;;3.20;99.90;;;;;;6220177;23;20432;-81
2022/01/25 07:41:24;;;;;;;682.50;641.80;;;3.30;99.90;;;;;;6223431;23;20416;-81
2022/01/25 07:43:50;;;;;;;690.73;649.30;;;3.20;99.90;;;;;;6232512;23;20747;-81
2022/01/25 07:46:17;;;;;;;701.00;658.97;;;3.20;99.90;;;;;;6221729;23;20436;-81
2022/01/25 07:48:46;;;;;;;707.40;663.73;;;3.20;99.90;;;;;;6223113;23;20823;-82
2022/01/25 07:51:12;;;;;;;699.90;657.10;;;3.20;99.90;;;;;;6222832;23;20412;-82
2022/01/25 07:53:41;;;;;;;713.60;669.60;;;3.20;99.90;;;;;;6222970;23;20419;-83
2022/01/25 07:56:08;;;;;;;719.60;675.67;;;3.20;99.90;;;;;;6223456;23;20414;-82
2022/01/25 07:58:34;;;;;;;707.63;664.13;;;3.20;99.90;;;;;;6223435;23;20750;-81
2022/01/25 08:01:01;;;;;;;717.43;672.77;;;3.30;99.90;;;;;;6222972;23;20481;-82
2022/01/25 08:03:28;;;;;;;713.70;668.93;;;3.20;99.90;;;;;;6233292;23;20412;-81
2022/01/25 08:05:56;;;;;;;697.60;654.90;;;3.30;99.90;;;;;;6223003;23;20436;-82
2022/01/25 08:08:23;;;;;;;692.07;650.27;;;3.30;99.90;;;;;;6222442;23;20435;-82
2022/01/25 08:10:50;;;;;;;683.17;642.87;;;3.20;99.90;;;;;;6222395;23;20412;-81
2022/01/25 08:13:17;;;;;;;685.80;644.73;;;3.20;99.90;;;;;;6222122;23;20412;-81
2022/01/25 08:15:43;;;;;;;681.77;641.10;;;3.20;99.90;;;;;;6222027;23;20423;-82
2022/01/25 08:18:10;;;;;;;671.97;631.90;;;3.30;99.90;;;;;;6221217;23;20416;-81
2022/01/25 08:20:37;;;;;;;656.17;618.37;;;3.30;99.90;;;;;;6232601;23;20415;-80
2022/01/25 08:23:05;;;;;;;662.77;625.40;;;3.30;99.90;;;;;;6221968;23;20499;-84
2022/01/25 08:25:32;;;;;;;643.60;607.20;;;3.20;99.90;;;;;;6222028;23;20419;-83
2022/01/25 08:27:59;;;;;;;648.97;611.47;;;3.30;99.90;;;;;;6222546;23;20495;-82
2022/01/25 08:30:26;;;;;;;665.43;627.17;;;3.30;99.90;;;;;;6221427;23;20432;-82
2022/01/25 08:32:52;;;;;;;674.03;634.80;;;3.20;99.90;;;;;;6223090;23;20445;-83
2022/01/25 08:35:20;;;;;;;661.20;623.60;;;3.30;99.90;;;;;;6222559;23;21058;-82
2022/01/25 08:37:46;;;;;;;668.63;630.03;;;3.30;99.90;;;;;;6222586;23;20472;-82
2022/01/25 08:40:15;;;;;;;668.97;630.77;;;3.30;99.90;;;;;;6222325;23;20438;-82
2022/01/25 08:42:43;;;;;;;661.53;622.33;;;3.40;99.90;;;;;;6222533;23;20420;-83
2022/01/25 08:45:13;;;;;;;650.50;614.77;;;3.50;99.90;;;;;;6221539;23;20422;-79
2022/01/25 08:47:40;;;;;;;639.77;603.50;;;3.50;99.90;;;;;;6223122;23;20432;-82
2022/01/25 08:50:09;;;;;;;644.77;609.57;;;3.50;99.90;;;;;;6222750;23;20436;-82
2022/01/25 08:52:36;;;;;;;630.83;596.07;;;3.60;99.90;;;;;;6222056;23;20470;-82
2022/01/25 08:55:03;;;;;;;625.07;591.83;;;3.60;99.90;;;;;;6222210;23;20408;-81
2022/01/25 08:57:31;;;;;;;594.93;563.63;;;3.60;99.90;;;;;;6224038;23;20410;-82
2022/01/25 08:59:58;;;;;;;587.17;555.60;;;3.60;99.90;;;;;;6232397;23;20428;-82
2022/01/25 09:02:25;;;;;;;580.13;550.43;;;3.60;99.90;;;;;;6221033;23;20412;-82
2022/01/25 09:04:52;;;;;;;573.40;543.00;;;3.60;99.90;;;;;;6222069;23;20443;-84
2022/01/25 09:07:19;;;;;;;583.50;551.87;;;3.60;99.90;;;;;;6222192;23;20466;-83
2022/01/25 09:09:45;;;;;;;594.87;563.17;;;3.60;99.90;;;;;;6222053;23;20432;-82
2022/01/25 09:12:12;;;;;;;570.77;541.17;;;3.70;99.90;;;;;;6222527;23;20498;-82
2022/01/25 09:14:40;;;;;;;551.97;523.97;;;3.70;99.90;;;;;;6224605;23;20412;-82
2022/01/25 09:17:09;;;;;;;548.50;520.93;;;3.70;99.90;;;;;;6223931;23;20415;-82
2022/01/25 09:19:38;;;;;;;549.70;522.10;;;3.80;99.90;;;;;;6224917;23;20436;-82
2022/01/25 09:22:05;;;;;;;527.00;500.10;;;3.90;99.90;;;;;;6225383;23;20420;-82
2022/01/25 09:24:32;;;;;;;512.67;486.63;;;3.80;99.90;;;;;;6233648;23;20416;-82
2022/01/25 09:26:58;;;;;;;505.23;480.30;;;3.90;99.90;;;;;;6224579;23;20961;-81
2022/01/25 09:29:25;;;;;;;512.20;486.67;;;3.90;99.90;;;;;;6225498;23;20432;-84
2022/01/25 09:31:53;;;;;;;506.00;480.80;;;3.90;99.90;;;;;;6226029;23;20423;-83
2022/01/25 09:34:23;;;;;;;492.20;468.90;;;3.90;99.90;;;;;;6224425;23;20412;-82
2022/01/25 09:36:50;;;;;;;456.23;434.53;;;3.90;99.90;;;;;;6223833;23;20751;-82
2022/01/25 09:39:17;;;;;;;438.27;417.60;;;3.90;99.90;;;;;;6225028;23;20494;-82
2022/01/25 09:41:44;;;;;;;442.67;421.80;;;4.00;99.90;;;;;;6224013;23;20414;-84
2022/01/25 09:44:11;;;;;;;422.10;402.13;;;4.00;99.90;;;;;;6226009;23;20458;-82
2022/01/25 09:46:39;;;;;;;398.77;379.83;;;4.10;99.90;;;;;;6226107;23;20502;-82
2022/01/25 09:49:07;;;;;;;390.53;372.10;;;4.10;99.90;;;;;;6224501;23;20431;-81
2022/01/25 09:51:35;;;;;;;385.33;367.27;;;4.10;99.90;;;;;;6225112;23;20418;-82
2022/01/25 09:54:01;;;;;;;367.70;351.30;;;4.20;99.90;;;;;;6225738;23;20976;-82
2022/01/25 09:56:28;;;;;;;333.37;316.03;;;4.30;99.90;;;;;;6224499;23;20412;-82
2022/01/25 09:58:55;;;;;;;291.77;277.13;;;4.40;99.90;;;;;;6223836;23;20764;-82
2022/01/25 10:01:26;;;;;;;216.67;204.90;;;4.40;99.90;;;;;;6226068;23;20426;-82
2022/01/25 10:03:52;;;;;;;218.67;206.70;;;4.50;99.90;;;;;;6223673;23;20458;-82
2022/01/25 10:06:22;;;;;;;207.50;195.13;;;4.50;99.90;;;;;;6223910;23;20499;-83
2022/01/25 10:08:52;;;;;;;177.20;166.50;;;4.50;99.90;;;;;;6224743;23;20519;-81
2022/01/25 10:11:22;;;;;;;200.57;188.70;;;4.60;99.90;;;;;;6223938;23;20399;-81
2022/01/25 10:13:51;;;;;;;175.53;164.70;;;4.60;99.90;;;;;;6223524;23;20412;-82
2022/01/25 10:16:20;;;;;;;137.80;128.70;;;4.60;99.90;;;;;;6223560;23;20447;-84
2022/01/25 10:18:49;;;;;;;129.93;121.70;;;4.60;99.90;;;;;;6223500;23;20515;-83
2022/01/25 10:21:18;;;;;;;117.20;108.40;;;4.70;99.90;;;;;;6234334;23;20425;-81
2022/01/25 10:24:05;;;;;;;118.23;110.50;;;4.80;99.90;;;;;;6224020;23;20430;-82
2022/01/25 10:26:33;;;;;;;124.87;115.87;;;4.90;99.90;;;;;;6222713;23;20400;-82
2022/01/25 10:29:00;;;;;;;115.53;107.20;;;4.90;99.90;;;;;;6223357;23;20432;-82
2022/01/25 10:31:38;;;;;;;97.13;89.47;;;5.00;99.90;;;;;;6225276;23;20432;-81
2022/01/25 10:34:07;;;;;;;80.93;73.83;;;5.10;99.90;;;;;;6222705;23;20418;-83
2022/01/25 10:36:35;;;;;;;64.53;47.10;;;5.10;99.90;;;;;;6223063;23;20423;-82
2022/01/25 10:39:04;;;;;;;62.20;53.50;;;5.20;99.90;;;;;;6224126;23;20488;-82
2022/01/25 10:41:31;;;;;;;56.33;50.33;;;5.20;99.90;;;;;;6224179;23;20914;-85
2022/01/25 10:43:59;;;;;;;71.03;64.07;;;5.30;99.90;;;;;;6224339;23;20469;-82
2022/01/25 10:46:27;;;;;;;68.00;60.97;;;5.20;99.90;;;;;;6223506;23;20418;-81
2022/01/25 10:48:58;;;;;;;62.00;55.30;;;5.20;99.90;;;;;;6224501;23;20523;-82
2022/01/25 10:51:28;;;;;;;63.37;56.70;;;5.10;99.90;;;;;;6224744;23;20487;-82
2022/01/25 10:54:16;;;;;;;57.10;50.07;;;5.20;99.90;;;;;;6224448;23;20414;-82
2022/01/25 10:56:46;;;;;;;57.67;42.07;;;5.30;99.90;;;;;;6225331;23;20765;-81
2022/01/25 10:59:16;;;;;;;54.10;46.33;;;5.20;99.90;;;;;;6224672;23;20428;-82
2022/01/25 11:01:51;;;;;;;52.43;42.40;;;5.40;99.90;;;;;;6222999;23;20391;-82
2022/01/25 11:04:20;;;;;;;54.07;42.00;;;5.40;99.90;;;;;;6222806;23;20798;-82
2022/01/25 11:06:57;;;;;;;55.83;40.27;;;5.50;99.90;;;;;;6223639;23;20411;-84
2022/01/25 11:09:27;;;;;;;59.77;44.00;;;5.50;99.90;;;;;;6231997;23;20435;-82
2022/01/25 11:11:56;;;;;;;54.50;39.50;;;5.50;99.90;;;;;;6226106;23;20392;-82
2022/01/25 11:17:08;;;;;;;49.37;32.90;;;5.40;99.90;;;;;;6235684;23;20925;-82
2022/01/25 11:19:35;;;;;;;49.93;33.50;;;5.30;99.60;;;;;;6224266;23;20450;-84
2022/01/25 11:22:02;;;;;;;44.17;30.37;;;5.40;99.60;;;;;;6224285;23;20404;-82
2022/01/25 11:24:31;;;;;;;54.07;33.23;;;5.30;98.90;;;;;;6223510;23;20426;-82
2022/01/25 11:27:02;;;;;;;56.00;34.53;;;5.20;98.20;;;;;;6222795;23;20436;-83
2022/01/25 11:29:29;;;;;;;56.67;31.53;;;5.40;98.40;;;;;;6222466;23;20949;-82
2022/01/25 11:32:02;;;;;;;56.77;34.10;;;5.20;98.40;;;;;;6224659;23;20408;-83
2022/01/25 11:34:36;;;;;;;47.87;31.30;;;5.20;97.90;;;;;;6223018;23;20435;-83
2022/01/25 11:37:06;;;;;;;59.73;33.60;;;5.30;97.60;;;;;;6222428;23;20496;-83
2022/01/25 11:39:36;;;;;;;52.67;32.60;;;5.20;98.10;;;;;;6221443;23;20438;-83
2022/01/25 11:42:06;;;;;;;55.20;31.33;;;5.30;97.80;;;;;;6222858;23;20890;-84
2022/01/25 11:44:33;;;;;;;47.37;32.60;;;5.20;97.50;;;;;;6222872;23;20412;-83
2022/01/25 11:47:09;;;;;;;53.30;34.13;;;5.10;97.20;;;;;;6225351;23;20411;-82
2022/01/25 11:49:49;;;;;;;48.00;30.60;;;5.10;97.70;;;;;;6222160;23;20427;-81
2022/01/25 11:52:16;;;;;;;54.80;32.70;;;5.20;97.60;;;;;;6220992;23;20475;-82
2022/01/25 11:54:45;;;;;;;50.70;33.60;;;5.00;97.30;;;;;;6223311;23;20750;-82
2022/01/25 11:57:15;;;;;;;54.23;31.13;;;5.00;97.30;;;;;;6223224;23;20749;-82
2022/01/25 11:59:43;;;;;;;51.07;31.23;;;5.00;96.80;;;;;;6222572;23;20438;-81
2022/01/25 12:02:11;;;;;;;56.17;32.93;;;5.10;97.00;;;;;;6223421;23;20494;-82
2022/01/25 12:04:44;;;;;;;52.00;31.43;;;5.10;97.30;;;;;;6222732;23;20416;-82
2022/01/25 12:07:24;;;;;;;57.83;32.90;;;5.10;97.20;;;;;;6222774;23;20420;-81
2022/01/25 12:10:03;;;;;;;50.20;31.13;;;5.10;97.40;;;;;;6223841;23;20455;-82
2022/01/25 12:12:30;;;;;;;53.00;32.07;;;5.20;97.10;;;;;;6222244;23;20403;-83
2022/01/25 12:14:57;;;;;;;47.77;30.27;;;5.20;96.70;;;;;;6222752;23;20422;-82
2022/01/25 12:17:26;;;;;;;47.97;30.83;;;5.10;96.20;;;;;;6223378;23;20426;-82
2022/01/25 12:19:54;;;;;;;52.90;30.37;;;5.10;96.50;;;;;;6221358;23;20946;-82
2022/01/25 12:22:34;;;;;;;52.50;32.60;;;5.10;96.20;;;;;;6223349;23;20460;-83
2022/01/25 12:25:08;;;;;;;55.53;31.93;;;5.10;96.20;;;;;;6221825;23;20735;-82
2022/01/25 12:27:40;;;;;;;57.73;32.97;;;5.10;96.20;;;;;;6221412;23;20771;-83
2022/01/25 12:30:12;;;;;;;51.90;31.50;;;5.20;96.20;;;;;;6221543;23;20432;-83
2022/01/25 12:32:49;;;;;;;54.20;32.00;;;5.00;96.10;;;;;;6223023;23;20412;-82
2022/01/25 12:35:18;;;;;;;51.53;33.30;;;5.10;96.20;;;;;;6222642;23;20418;-82
2022/01/25 12:38:12;;;;;;;55.47;35.13;;;5.20;96.80;;;;;;6223259;23;20511;-83
2022/01/25 12:40:50;;;;;;;51.47;31.53;;;5.10;96.50;;;;;;6221626;23;20870;-84
2022/01/25 12:43:19;;;;;;;52.57;33.50;;;5.10;96.20;;;;;;6223269;23;20403;-81
2022/01/25 12:45:51;;;;;;;54.07;33.53;;;5.30;96.30;;;;;;6223161;23;20411;-82
2022/01/25 12:48:20;;;;;;;56.43;35.03;;;5.10;96.20;;;;;;6220792;23;20430;-82
2022/01/25 12:50:50;;;;;;;50.23;32.73;;;5.10;96.20;;;;;;6221549;23;20423;-83
2022/01/25 12:53:19;;;;;;;58.27;33.17;;;5.10;96.20;;;;;;6221881;23;20499;-81
2022/01/25 12:55:49;;;;;;;55.07;33.23;;;5.10;96.20;;;;;;6222333;23;20412;-81
2022/01/25 12:58:18;;;;;;;54.60;33.50;;;5.10;96.20;;;;;;6221686;23;20408;-83
2022/01/25 13:00:46;;;;;;;48.03;30.93;;;5.10;95.90;;;;;;6221139;23;20412;-83
2022/01/25 13:03:16;;;;;;;52.17;33.10;;;5.20;96.20;;;;;;6222218;23;20742;-82
2022/01/25 13:05:45;;;;;;;55.80;32.63;;;5.20;96.00;;;;;;6221394;23;20914;-82
2022/01/25 13:08:25;;;;;;;55.53;33.57;;;5.20;95.60;;;;;;6220678;23;20432;-81
2022/01/25 13:10:57;;;;;;;58.63;32.00;;;5.30;95.60;;;;;;6221248;23;20396;-82
2022/01/25 13:13:29;;;;;;;57.37;34.50;;;5.30;95.50;;;;;;6222418;23;20401;-82
2022/01/25 13:16:00;;;;;;;52.00;34.13;;;5.10;94.70;;;;;;6221260;23;20400;-81
2022/01/25 13:18:32;;;;;;;52.50;31.80;;;5.00;95.00;;;;;;6221198;23;20428;-81
2022/01/25 13:21:07;;;;;;;54.30;33.10;;;5.10;95.20;;;;;;6220952;23;20420;-82
2022/01/25 13:23:36;;;;;;;51.63;30.57;;;5.10;95.50;;;;;;6222899;23;20475;-80
2022/01/25 13:26:14;;;;;;;50.37;30.57;;;5.10;95.00;;;;;;6231455;23;20800;-81
2022/01/25 13:28:55;;;;;;;56.27;35.00;;;5.30;95.10;;;;;;6220435;23;20527;-81
2022/01/25 13:31:23;;;;;;;56.23;34.23;;;5.30;95.30;;;;;;6221592;23;20396;-81
2022/01/25 13:33:53;;;;;;;58.70;33.23;;;5.30;95.80;;;;;;6221991;23;20412;-80
2022/01/25 13:36:21;;;;;;;50.77;31.23;;;5.30;94.70;;;;;;6221816;23;20443;-81
2022/01/25 13:38:49;;;;;;;50.70;31.40;;;5.20;94.30;;;;;;6221048;23;20436;-81
2022/01/25 13:41:24;;;;;;;55.37;33.60;;;5.10;93.80;;;;;;6221293;23;20466;-81
2022/01/25 13:46:39;;;;;;;52.43;32.00;;;5.20;94.80;;;;;;6220824;23;20459;-81
2022/01/25 13:49:10;;;;;;;55.87;33.83;;;5.30;94.90;;;;;;6220752;23;20466;-81